createdAt,value
2023-03-04T00:01:07.489Z,1.40
2023-03-04T00:03:37.416Z,1.40
2023-03-04T00:06:06.124Z,1.38
2023-03-04T00:08:34.908Z,1.34
2023-03-04T00:11:03.087Z,1.32
2023-03-04T00:13:31.372Z,1.32
2023-03-04T00:15:59.740Z,1.32
2023-03-04T00:18:27.926Z,1.31
2023-03-04T00:20:56.211Z,1.29
2023-03-04T00:23:24.692Z,1.28
2023-03-04T00:25:53.076Z,1.27
2023-03-04T00:28:21.464Z,1.23
2023-03-04T00:30:49.848Z,1.19
2023-03-04T00:33:18.234Z,1.11
2023-03-04T00:35:46.557Z,1.06
2023-03-04T00:38:14.895Z,1.04
2023-03-04T00:40:44.550Z,1.02
2023-03-04T00:43:13.306Z,1.01
2023-03-04T00:45:42.129Z,0.99
2023-03-04T00:48:10.686Z,0.97
2023-03-04T00:50:39.167Z,0.93
2023-03-04T00:53:07.558Z,0.90
2023-03-04T00:55:36.298Z,0.87
2023-03-04T00:58:04.841Z,0.83
2023-03-04T01:00:33.118Z,0.81
2023-03-04T01:03:01.502Z,0.77
2023-03-04T01:05:29.886Z,0.73
2023-03-04T01:07:58.163Z,0.71
2023-03-04T01:10:26.444Z,0.68
2023-03-04T01:12:54.629Z,0.65
2023-03-04T01:15:23.425Z,0.61
2023-03-04T01:17:51.844Z,0.56
2023-03-04T01:20:20.289Z,0.51
2023-03-04T01:22:48.573Z,0.41
2023-03-04T01:25:16.956Z,0.32
2023-03-04T01:27:45.237Z,0.25
2023-03-04T01:30:13.640Z,0.16
2023-03-04T01:32:42.028Z,0.09
2023-03-04T01:35:10.801Z,0.04
2023-03-04T01:37:39.618Z,-0.01
2023-03-04T01:40:09.879Z,-0.07
2023-03-04T01:42:40.157Z,-0.14
2023-03-04T01:45:16.730Z,-0.19
2023-03-04T01:47:50.595Z,-0.24
2023-03-04T01:50:19.020Z,-0.30
2023-03-04T01:52:47.511Z,-0.35
2023-03-04T01:55:19.268Z,-0.38
2023-03-04T01:57:50.123Z,-0.42
2023-03-04T02:00:26.904Z,-0.45
2023-03-04T02:03:08.032Z,-0.50
2023-03-04T02:05:38.696Z,-0.52
2023-03-04T02:08:08.222Z,-0.55
2023-03-04T02:10:39.367Z,-0.60
2023-03-04T02:13:07.633Z,-0.64
2023-03-04T02:15:36.127Z,-0.68
2023-03-04T02:18:23.674Z,-0.72
2023-03-04T02:21:19.973Z,-0.74
2023-03-04T02:24:15.573Z,-0.73
2023-03-04T02:26:47.018Z,-0.75
2023-03-04T02:29:17.202Z,-0.76
2023-03-04T02:31:49.009Z,-0.77
2023-03-04T02:34:30.107Z,-0.79
2023-03-04T02:36:59.127Z,-0.80
2023-03-04T02:39:33.303Z,-0.80
2023-03-04T02:42:03.333Z,-0.80
2023-03-04T02:44:37.495Z,-0.82
2023-03-04T02:47:09.273Z,-0.86
2023-03-04T02:49:41.322Z,-0.83
2023-03-04T02:52:14.671Z,-0.82
2023-03-04T02:54:43.112Z,-0.79
2023-03-04T02:57:13.984Z,-0.75
2023-03-04T02:59:43.924Z,-0.71
2023-03-04T03:02:16.093Z,-0.70
2023-03-04T03:04:44.396Z,-0.70
2023-03-04T03:07:14.804Z,-0.67
2023-03-04T03:09:43.302Z,-0.65
2023-03-04T03:12:11.675Z,-0.65
2023-03-04T03:14:40.161Z,-0.62
2023-03-04T03:17:10.567Z,-0.61
2023-03-04T03:19:38.775Z,-0.62
2023-03-04T03:22:08.286Z,-0.62
2023-03-04T03:24:37.192Z,-0.61
2023-03-04T03:27:05.478Z,-0.61
2023-03-04T03:29:34.350Z,-0.60
2023-03-04T03:32:02.548Z,-0.58
2023-03-04T03:34:30.815Z,-0.59
2023-03-04T03:36:59.211Z,-0.62
2023-03-04T03:39:27.590Z,-0.65
2023-03-04T03:41:56.377Z,-0.65
2023-03-04T03:44:24.759Z,-0.68
2023-03-04T03:46:53.252Z,-0.72
2023-03-04T03:49:21.938Z,-0.75
2023-03-04T03:51:50.530Z,-0.75
2023-03-04T03:54:18.824Z,-0.73
2023-03-04T03:56:47.398Z,-0.73
2023-03-04T03:59:15.684Z,-0.77
2023-03-04T04:01:44.094Z,-0.81
2023-03-04T04:04:12.350Z,-0.86
2023-03-04T04:06:40.639Z,-0.90
2023-03-04T04:09:08.809Z,-0.91
2023-03-04T04:11:37.299Z,-0.90
2023-03-04T04:14:05.581Z,-0.91
2023-03-04T04:16:33.847Z,-0.94
2023-03-04T04:19:02.257Z,-0.96
2023-03-04T04:21:30.558Z,-1.01
2023-03-04T04:23:58.809Z,-1.06
2023-03-04T04:26:29.447Z,-1.09
2023-03-04T04:28:57.938Z,-1.14
2023-03-04T04:31:26.124Z,-1.18
2023-03-04T04:33:54.498Z,-1.20
2023-03-04T04:36:22.880Z,-1.20
2023-03-04T04:39:05.286Z,-1.21
2023-03-04T04:41:43.185Z,-1.19
2023-03-04T04:44:12.965Z,-1.19
2023-03-04T04:46:42.162Z,-1.20
2023-03-04T04:49:11.435Z,-1.20
2023-03-04T04:51:39.915Z,-1.19
2023-03-04T04:54:08.400Z,-1.18
2023-03-04T04:56:37.072Z,-1.17
2023-03-04T04:59:08.846Z,-1.17
2023-03-04T05:01:37.577Z,-1.20
2023-03-04T05:04:06.441Z,-1.21
2023-03-04T05:06:34.811Z,-1.22
2023-03-04T05:09:04.635Z,-1.21
2023-03-04T05:11:33.211Z,-1.20
2023-03-04T05:14:01.411Z,-1.22
2023-03-04T05:16:30.187Z,-1.26
2023-03-04T05:18:58.581Z,-1.28
2023-03-04T05:21:26.858Z,-1.29
2023-03-04T05:23:55.344Z,-1.30
2023-03-04T05:26:23.522Z,-1.29
2023-03-04T05:28:51.912Z,-1.27
2023-03-04T05:31:20.440Z,-1.24
2023-03-04T05:33:48.682Z,-1.20
2023-03-04T05:36:17.176Z,-1.17
2023-03-04T05:38:45.757Z,-1.15
2023-03-04T05:41:14.042Z,-1.10
2023-03-04T05:43:43.064Z,-1.04
2023-03-04T05:46:17.361Z,-0.99
2023-03-04T05:48:45.846Z,-0.88
2023-03-04T05:51:14.225Z,-0.70
2023-03-04T05:53:42.508Z,-0.60
2023-03-04T05:56:16.316Z,-0.51
2023-03-04T05:58:45.216Z,-0.43
2023-03-04T06:01:14.713Z,-0.37
2023-03-04T06:03:43.787Z,-0.33
2023-03-04T06:06:12.112Z,-0.28
2023-03-04T06:08:40.383Z,-0.25
2023-03-04T06:11:09.060Z,-0.23
2023-03-04T06:13:38.482Z,-0.20
2023-03-04T06:16:07.518Z,-0.16
2023-03-04T06:18:35.988Z,-0.12
2023-03-04T06:21:04.796Z,-0.09
2023-03-04T06:23:33.148Z,-0.06
2023-03-04T06:26:02.016Z,-0.02
2023-03-04T06:28:30.594Z,0.02
2023-03-04T06:30:59.019Z,0.05
2023-03-04T06:33:27.519Z,0.06
2023-03-04T06:35:57.453Z,0.07
2023-03-04T06:38:26.997Z,0.10
2023-03-04T06:40:57.461Z,0.12
2023-03-04T06:43:26.211Z,0.16
2023-03-04T06:45:54.855Z,0.21
2023-03-04T06:48:23.645Z,0.26
2023-03-04T06:50:52.047Z,0.33
2023-03-04T06:53:20.308Z,0.39
2023-03-04T06:55:49.823Z,0.46
2023-03-04T06:58:18.409Z,0.55
2023-03-04T07:00:46.941Z,0.64
2023-03-04T07:03:15.379Z,0.73
2023-03-04T07:05:44.172Z,0.84
2023-03-04T07:08:12.864Z,0.94
2023-03-04T07:10:41.572Z,1.04
2023-03-04T07:13:09.842Z,1.15
2023-03-04T07:15:38.436Z,1.26
2023-03-04T07:18:06.718Z,1.37
2023-03-04T07:20:35.202Z,1.50
2023-03-04T07:23:03.487Z,1.62
2023-03-04T07:25:32.179Z,1.75
2023-03-04T07:28:10.397Z,1.90
2023-03-04T07:30:38.868Z,2.07
2023-03-04T07:33:07.459Z,2.22
2023-03-04T07:35:56.037Z,2.39
2023-03-04T07:38:36.763Z,2.59
2023-03-04T07:41:05.772Z,2.76
2023-03-04T07:43:34.089Z,2.93
2023-03-04T07:46:03.130Z,3.09
2023-03-04T07:48:32.050Z,3.26
2023-03-04T07:51:21.515Z,3.42
2023-03-04T07:53:52.257Z,3.61
2023-03-04T07:56:24.139Z,3.77
2023-03-04T07:58:56.488Z,3.93
2023-03-04T08:01:34.795Z,4.08
2023-03-04T08:04:05.557Z,4.25
2023-03-04T08:06:34.701Z,4.40
2023-03-04T08:09:08.241Z,4.58
2023-03-04T08:11:38.288Z,4.76
2023-03-04T08:14:07.167Z,4.93
2023-03-04T08:16:35.578Z,5.07
2023-03-04T08:19:04.838Z,5.20
2023-03-04T08:21:33.911Z,5.36
2023-03-04T08:24:08.428Z,5.47
2023-03-04T08:26:46.072Z,5.62
2023-03-04T08:29:23.662Z,5.79
2023-03-04T08:31:54.350Z,5.96
2023-03-04T08:34:25.649Z,6.12
2023-03-04T08:36:54.784Z,6.30
2023-03-04T08:39:23.237Z,6.49
2023-03-04T08:41:51.844Z,6.69
2023-03-04T08:44:20.728Z,6.86
2023-03-04T08:46:49.120Z,6.98
2023-03-04T08:49:17.489Z,7.20
2023-03-04T08:51:46.606Z,7.40
2023-03-04T08:54:14.981Z,7.60
2023-03-04T08:56:43.591Z,7.79
2023-03-04T08:59:12.222Z,7.98
2023-03-04T09:01:40.694Z,8.09
2023-03-04T09:04:09.255Z,8.26
2023-03-04T09:06:41.712Z,8.54
2023-03-04T09:09:10.012Z,8.75
2023-03-04T09:11:38.762Z,8.99
2023-03-04T09:14:07.154Z,9.25
2023-03-04T09:16:44.236Z,9.48
2023-03-04T09:19:16.117Z,9.71
2023-03-04T09:21:44.600Z,9.94
2023-03-04T09:24:13.190Z,10.16
2023-03-04T09:26:41.472Z,10.44
2023-03-04T09:29:10.473Z,10.87
2023-03-04T09:31:38.921Z,11.48
2023-03-04T09:34:07.457Z,12.32
2023-03-04T09:36:35.753Z,13.02
2023-03-04T09:39:04.992Z,13.66
2023-03-04T09:42:07.968Z,14.19
2023-03-04T09:44:49.698Z,14.85
2023-03-04T09:47:21.863Z,15.20
2023-03-04T09:50:11.164Z,15.60
2023-03-04T09:53:08.070Z,16.12
2023-03-04T09:55:42.587Z,16.54
2023-03-04T09:58:26.844Z,16.92
2023-03-04T10:01:17.431Z,17.22
2023-03-04T10:03:52.320Z,17.28
2023-03-04T10:06:23.296Z,17.66
2023-03-04T10:09:02.945Z,18.35
2023-03-04T10:11:43.204Z,18.77
2023-03-04T10:14:23.859Z,18.93
2023-03-04T10:16:53.575Z,19.30
2023-03-04T10:19:44.980Z,19.53
2023-03-04T10:22:41.424Z,19.99
2023-03-04T10:25:20.680Z,20.35
2023-03-04T10:27:53.326Z,20.65
2023-03-04T10:30:53.122Z,21.29
2023-03-04T10:33:25.964Z,21.66
2023-03-04T10:36:28.971Z,22.01
2023-03-04T10:39:08.199Z,21.81
2023-03-04T10:41:37.287Z,22.00
2023-03-04T10:44:08.964Z,22.36
2023-03-04T10:46:49.219Z,22.74
2023-03-04T10:49:25.268Z,23.17
2023-03-04T10:52:21.799Z,23.47
2023-03-04T10:54:54.075Z,23.67
2023-03-04T10:57:38.116Z,23.68
2023-03-04T11:00:18.501Z,23.00
2023-03-04T11:02:48.204Z,23.15
2023-03-04T11:05:24.828Z,23.30
2023-03-04T11:08:00.195Z,23.69
2023-03-04T11:11:16.522Z,24.09
2023-03-04T11:14:03.971Z,24.24
2023-03-04T11:16:34.929Z,24.35
2023-03-04T11:19:25.167Z,24.41
2023-03-04T11:21:55.351Z,24.62
2023-03-04T11:24:29.847Z,24.76
2023-03-04T11:26:58.149Z,25.00
2023-03-04T11:29:43.621Z,24.96
2023-03-04T11:32:22.730Z,24.90
2023-03-04T11:35:18.752Z,24.67
2023-03-04T11:38:02.404Z,24.27
2023-03-04T11:40:36.434Z,24.00
2023-03-04T11:43:16.683Z,23.81
2023-03-04T11:46:08.092Z,23.46
2023-03-04T11:48:52.069Z,23.33
2023-03-04T11:51:46.866Z,23.36
2023-03-04T11:54:24.544Z,22.90
2023-03-04T11:57:12.772Z,22.77
2023-03-04T12:00:09.490Z,22.46
2023-03-04T12:03:40.586Z,21.97
2023-03-04T12:07:00.259Z,21.11
2023-03-04T12:09:45.630Z,20.47
2023-03-04T12:12:17.272Z,20.17
2023-03-04T12:14:55.816Z,20.09
2023-03-04T12:17:38.824Z,20.29
2023-03-04T12:20:52.236Z,20.42
2023-03-04T12:23:33.616Z,20.35
2023-03-04T12:26:31.065Z,20.22
2023-03-04T12:29:02.413Z,19.97
2023-03-04T12:31:43.397Z,19.98
2023-03-04T12:34:33.376Z,20.14
2023-03-04T12:37:31.225Z,20.32
2023-03-04T12:44:45.041Z,21.04
2023-03-04T12:47:22.725Z,21.59
2023-03-04T12:50:10.538Z,21.86
2023-03-04T12:52:47.846Z,21.99
2023-03-04T12:55:19.606Z,22.36
2023-03-04T12:57:52.278Z,22.62
2023-03-04T13:00:44.606Z,23.04
2023-03-04T13:03:42.676Z,23.44
2023-03-04T13:06:43.689Z,23.73
2023-03-04T13:09:17.098Z,24.46
2023-03-04T13:11:52.748Z,24.89
2023-03-04T13:14:21.147Z,25.08
2023-03-04T13:16:54.222Z,25.25
2023-03-04T13:19:46.853Z,25.67
2023-03-04T13:22:42.616Z,26.05
2023-03-04T13:25:42.572Z,26.69
2023-03-04T13:28:11.068Z,27.60
2023-03-04T13:30:42.320Z,28.05
2023-03-04T13:33:16.278Z,28.44
2023-03-04T13:35:50.438Z,28.72
2023-03-04T13:38:30.920Z,28.85
2023-03-04T13:41:23.220Z,28.56
2023-03-04T13:43:58.617Z,28.52
2023-03-04T13:46:27.845Z,28.93
2023-03-04T13:48:56.558Z,29.01
2023-03-04T13:51:40.606Z,28.64
2023-03-04T13:54:17.069Z,28.85
2023-03-04T13:57:08.997Z,28.83
2023-03-04T13:59:46.690Z,29.10
2023-03-04T14:02:15.982Z,29.31
2023-03-04T14:04:54.212Z,29.05
2023-03-04T14:07:27.601Z,28.91
2023-03-04T14:09:57.411Z,28.67
2023-03-04T14:12:28.763Z,28.42
2023-03-04T14:15:00.834Z,28.46
2023-03-04T14:17:35.330Z,28.50
2023-03-04T14:20:05.657Z,28.52
2023-03-04T14:22:40.220Z,28.40
2023-03-04T14:25:14.440Z,28.24
2023-03-04T14:27:42.739Z,28.61
2023-03-04T14:30:39.119Z,29.04
2023-03-04T14:33:18.444Z,29.03
2023-03-04T14:35:53.466Z,28.88
2023-03-04T14:38:39.640Z,28.54
2023-03-04T14:41:21.283Z,28.32
2023-03-04T14:44:13.136Z,27.67
2023-03-04T14:47:06.077Z,27.56
2023-03-04T14:49:49.882Z,27.42
2023-03-04T14:52:39.963Z,27.15
2023-03-04T14:55:15.125Z,27.19
2023-03-04T14:58:01.941Z,27.41
2023-03-04T15:00:35.773Z,27.19
2023-03-04T15:03:21.730Z,27.00
2023-03-04T15:06:06.928Z,26.60
2023-03-04T15:08:41.281Z,26.21
2023-03-04T15:11:22.786Z,25.99
2023-03-04T15:13:54.893Z,25.51
2023-03-04T15:16:27.097Z,24.57
2023-03-04T15:19:00.628Z,23.33
2023-03-04T15:21:38.145Z,21.95
2023-03-04T15:24:10.181Z,20.50
2023-03-04T15:26:40.895Z,19.32
2023-03-04T15:29:17.865Z,18.37
2023-03-04T15:31:51.874Z,17.49
2023-03-04T15:34:20.816Z,16.83
2023-03-04T15:36:51.146Z,16.35
2023-03-04T15:39:24.191Z,15.88
2023-03-04T15:42:14.214Z,15.50
2023-03-04T15:44:42.578Z,15.15
2023-03-04T15:47:13.971Z,14.91
2023-03-04T15:49:44.667Z,14.66
2023-03-04T15:52:18.593Z,14.41
2023-03-04T15:54:49.053Z,14.17
2023-03-04T15:57:35.507Z,13.92
2023-03-04T16:00:04.416Z,13.73
2023-03-04T16:02:39.938Z,13.57
2023-03-04T16:05:09.635Z,13.39
2023-03-04T16:07:40.725Z,13.21
2023-03-04T16:10:18.719Z,13.11
2023-03-04T16:12:47.047Z,12.98
2023-03-04T16:15:21.945Z,12.86
2023-03-04T16:17:51.140Z,12.74
2023-03-04T16:20:22.899Z,12.65
2023-03-04T16:22:55.187Z,12.53
2023-03-04T16:25:25.164Z,12.42
2023-03-04T16:28:03.000Z,12.29
2023-03-04T16:30:32.240Z,12.15
2023-03-04T16:33:00.578Z,12.00
2023-03-04T16:35:29.902Z,11.81
2023-03-04T16:37:58.885Z,11.63
2023-03-04T16:40:30.025Z,11.50
2023-03-04T16:42:58.421Z,11.37
2023-03-04T16:45:31.852Z,11.24
2023-03-04T16:48:00.304Z,11.11
2023-03-04T16:50:30.102Z,10.94
2023-03-04T16:52:58.395Z,10.83
2023-03-04T16:55:29.230Z,10.72
2023-03-04T16:57:58.443Z,10.61
2023-03-04T17:00:28.910Z,10.52
2023-03-04T17:03:00.371Z,10.45
2023-03-04T17:05:31.897Z,10.41
2023-03-04T17:08:00.163Z,10.33
2023-03-04T17:10:28.654Z,10.28
2023-03-04T17:12:57.179Z,10.26
2023-03-04T17:15:25.522Z,10.23
2023-03-04T17:17:54.116Z,10.13
2023-03-04T17:20:23.065Z,10.00
2023-03-04T17:22:51.394Z,9.89
2023-03-04T17:25:19.796Z,9.76
2023-03-04T17:27:48.051Z,9.64
2023-03-04T17:30:17.090Z,9.54
2023-03-04T17:32:45.546Z,9.46
2023-03-04T17:35:14.228Z,9.36
2023-03-04T17:37:42.717Z,9.30
2023-03-04T17:40:15.314Z,9.23
2023-03-04T17:42:44.006Z,9.19
2023-03-04T17:45:12.475Z,9.14
2023-03-04T17:47:40.968Z,9.07
2023-03-04T17:50:10.738Z,9.02
2023-03-04T17:52:54.221Z,8.96
2023-03-04T17:55:22.904Z,8.88
2023-03-04T17:57:53.253Z,8.80
2023-03-04T18:00:22.308Z,8.75
2023-03-04T18:03:20.265Z,8.68
2023-03-04T18:05:55.600Z,8.60
2023-03-04T18:08:28.521Z,8.53
2023-03-04T18:10:59.565Z,8.47
2023-03-04T18:13:28.049Z,8.40
2023-03-04T18:15:56.834Z,8.32
2023-03-04T18:18:25.328Z,8.26
2023-03-04T18:21:00.880Z,8.20
2023-03-04T18:23:29.571Z,8.14
2023-03-04T18:25:58.174Z,8.12
2023-03-04T18:28:26.552Z,8.08
2023-03-04T18:30:58.413Z,7.98
2023-03-04T18:33:28.228Z,7.95
2023-03-04T18:36:01.437Z,7.89
2023-03-04T18:38:31.453Z,7.82
2023-03-04T18:41:08.829Z,7.78
2023-03-04T18:43:37.777Z,7.75
2023-03-04T18:46:17.166Z,7.69
2023-03-04T18:48:49.027Z,7.60
2023-03-04T18:51:17.430Z,7.52
2023-03-04T18:53:46.189Z,7.45
2023-03-04T18:56:37.804Z,7.37
2023-03-04T18:59:17.872Z,7.31
2023-03-04T19:01:47.433Z,7.26
2023-03-04T19:04:18.362Z,7.21
2023-03-04T19:06:47.436Z,7.17
2023-03-04T19:09:16.130Z,7.11
2023-03-04T19:11:44.295Z,7.05
2023-03-04T19:14:13.027Z,6.95
2023-03-04T19:16:41.540Z,6.84
2023-03-04T19:19:09.810Z,6.73
2023-03-04T19:21:39.061Z,6.66
2023-03-04T19:24:08.082Z,6.59
2023-03-04T19:26:36.448Z,6.52
2023-03-04T19:29:05.958Z,6.44
2023-03-04T19:31:34.540Z,6.37
2023-03-04T19:34:02.828Z,6.26
2023-03-04T19:36:32.134Z,6.18
2023-03-04T19:39:01.344Z,6.09
2023-03-04T19:41:30.233Z,6.00
2023-03-04T19:43:58.930Z,5.92
2023-03-04T19:46:28.302Z,5.84
2023-03-04T19:48:56.816Z,5.74
2023-03-04T19:51:29.098Z,5.65
2023-03-04T19:53:57.367Z,5.61
2023-03-04T19:56:25.853Z,5.58
2023-03-04T19:58:56.292Z,5.58
2023-03-04T20:01:28.522Z,5.57
2023-03-04T20:04:04.638Z,5.54
2023-03-04T20:06:36.686Z,5.46
2023-03-04T20:09:05.670Z,5.39
2023-03-04T20:11:39.211Z,5.35
2023-03-04T20:14:12.912Z,5.33
2023-03-04T20:16:41.379Z,5.33
2023-03-04T20:19:09.964Z,5.34
2023-03-04T20:21:39.076Z,5.31
2023-03-04T20:24:07.553Z,5.27
2023-03-04T20:26:35.939Z,5.22
2023-03-04T20:29:04.225Z,5.21
2023-03-04T20:31:38.543Z,5.20
2023-03-04T20:34:08.984Z,5.20
2023-03-04T20:36:38.782Z,5.18
2023-03-04T20:39:25.787Z,5.19
2023-03-04T20:41:59.824Z,5.14
2023-03-04T20:44:28.706Z,5.11
2023-03-04T20:46:58.072Z,5.11
2023-03-04T20:49:59.957Z,5.11
2023-03-04T20:52:39.202Z,5.06
2023-03-04T20:55:29.029Z,4.96
2023-03-04T20:58:16.483Z,4.87
2023-03-04T21:00:45.080Z,4.82
2023-03-04T21:03:13.453Z,4.81
2023-03-04T21:05:41.839Z,4.82
2023-03-04T21:08:10.324Z,4.83
2023-03-04T21:10:38.525Z,4.86
2023-03-04T21:13:11.402Z,4.88
2023-03-04T21:15:47.168Z,4.88
2023-03-04T21:18:16.255Z,4.85
2023-03-04T21:20:45.450Z,4.80
2023-03-04T21:23:14.464Z,4.78
2023-03-04T21:25:42.739Z,4.75
2023-03-04T21:28:11.219Z,4.71
2023-03-04T21:30:39.604Z,4.67
2023-03-04T21:33:17.208Z,4.63
2023-03-04T21:35:48.301Z,4.57
2023-03-04T21:38:16.733Z,4.50
2023-03-04T21:40:45.426Z,4.43
2023-03-04T21:43:13.918Z,4.38
2023-03-04T21:45:42.305Z,4.32
2023-03-04T21:48:10.797Z,4.23
2023-03-04T21:50:39.500Z,4.16
2023-03-04T21:53:07.682Z,4.11
2023-03-04T21:55:36.576Z,4.05
2023-03-04T21:58:05.305Z,4.01
2023-03-04T22:00:33.575Z,3.99
2023-03-04T22:03:02.040Z,3.98
2023-03-04T22:05:30.732Z,3.95
2023-03-04T22:07:59.216Z,3.89
2023-03-04T22:10:28.730Z,3.83
2023-03-04T22:12:57.116Z,3.76
2023-03-04T22:15:25.294Z,3.67
2023-03-04T22:17:53.853Z,3.63
2023-03-04T22:20:25.235Z,3.63
2023-03-04T22:22:53.417Z,3.63
2023-03-04T22:25:21.808Z,3.66
2023-03-04T22:27:50.289Z,3.67
2023-03-04T22:30:19.103Z,3.65
2023-03-04T22:32:48.775Z,3.65
2023-03-04T22:35:18.528Z,3.61
2023-03-04T22:37:46.808Z,3.58
2023-03-04T22:40:16.524Z,3.55
2023-03-04T22:42:46.808Z,3.50
2023-03-04T22:45:17.938Z,3.48
2023-03-04T22:47:52.418Z,3.44
2023-03-04T22:50:22.313Z,3.42
2023-03-04T22:52:50.615Z,3.40
2023-03-04T22:55:20.822Z,3.39
2023-03-04T22:57:49.856Z,3.37
2023-03-04T23:00:28.251Z,3.36
2023-03-04T23:02:57.393Z,3.33
2023-03-04T23:05:26.032Z,3.27
2023-03-04T23:07:54.624Z,3.23
2023-03-04T23:10:25.258Z,3.17
2023-03-04T23:12:54.668Z,3.08
2023-03-04T23:15:24.604Z,3.01
2023-03-04T23:17:53.074Z,2.95
2023-03-04T23:20:22.078Z,2.89
2023-03-04T23:22:50.675Z,2.82
2023-03-04T23:25:18.864Z,2.74
2023-03-04T23:27:47.432Z,2.67
2023-03-04T23:30:17.353Z,2.64
2023-03-04T23:32:45.546Z,2.59
2023-03-04T23:35:13.910Z,2.54
2023-03-04T23:37:42.503Z,2.49
2023-03-04T23:40:12.014Z,2.45
2023-03-04T23:42:40.252Z,2.44
2023-03-04T23:45:09.476Z,2.43
2023-03-04T23:47:38.090Z,2.43
2023-03-04T23:50:08.863Z,2.43
2023-03-04T23:52:37.214Z,2.40
2023-03-04T23:55:06.687Z,2.36
2023-03-04T23:57:35.006Z,2.33
